createdAt,value
2019-04-21T00:02:03.504Z,11.00
2019-04-21T00:04:43.390Z,11.00
2019-04-21T00:07:19.331Z,11.00
2019-04-21T00:09:52.361Z,11.10
2019-04-21T00:12:18.255Z,11.00
2019-04-21T00:14:43.356Z,11.00
2019-04-21T00:17:06.145Z,11.00
2019-04-21T00:19:42.559Z,10.90
2019-04-21T00:22:26.102Z,10.70
2019-04-21T00:24:54.366Z,10.70
2019-04-21T00:27:25.610Z,10.60
2019-04-21T00:29:58.040Z,10.50
2019-04-21T00:32:25.385Z,10.50
2019-04-21T00:34:50.310Z,10.50
2019-04-21T00:37:22.476Z,10.50
2019-04-21T00:42:30.317Z,10.40
2019-04-21T00:44:55.652Z,10.40
2019-04-21T00:47:31.754Z,10.40
2019-04-21T00:50:01.999Z,10.40
2019-04-21T00:55:31.250Z,10.20
2019-04-21T00:57:51.947Z,10.00
2019-04-21T01:00:18.644Z,9.90
2019-04-21T01:05:18.255Z,9.70
2019-04-21T01:07:42.397Z,9.70
2019-04-21T01:10:05.233Z,9.80
2019-04-21T01:12:43.044Z,9.80
2019-04-21T01:15:18.587Z,9.60
2019-04-21T01:17:41.819Z,9.40
2019-04-21T01:20:02.836Z,9.40
2019-04-21T01:22:18.275Z,9.40
2019-04-21T01:24:48.734Z,9.40
2019-04-21T01:27:25.194Z,9.40
2019-04-21T01:30:07.229Z,9.50
2019-04-21T01:32:37.479Z,9.50
2019-04-21T01:35:09.880Z,9.50
2019-04-21T01:37:44.033Z,9.50
2019-04-21T01:40:10.495Z,9.50
2019-04-21T01:42:33.400Z,9.60
2019-04-21T01:45:05.454Z,9.60
2019-04-21T01:47:31.430Z,9.40
2019-04-21T01:49:58.030Z,9.40
2019-04-21T01:52:43.944Z,9.30
2019-04-21T01:55:18.365Z,9.10
2019-04-21T01:58:11.364Z,9.00
2019-04-21T02:00:54.359Z,9.00
2019-04-21T02:03:41.725Z,8.90
2019-04-21T02:06:02.295Z,8.90
2019-04-21T02:08:21.555Z,8.90
2019-04-21T02:10:57.154Z,8.70
2019-04-21T02:13:16.873Z,8.60
2019-04-21T02:15:56.376Z,8.60
2019-04-21T02:18:16.995Z,8.60
2019-04-21T02:20:39.872Z,8.60
2019-04-21T02:23:26.437Z,8.50
2019-04-21T02:25:50.644Z,8.60
2019-04-21T02:28:29.769Z,8.60
2019-04-21T02:31:09.622Z,8.60
2019-04-21T02:33:43.062Z,8.50
2019-04-21T02:36:00.590Z,8.60
2019-04-21T02:38:30.711Z,8.60
2019-04-21T02:40:49.473Z,8.70
2019-04-21T02:43:25.115Z,8.70
2019-04-21T02:45:58.569Z,8.70
2019-04-21T02:53:30.532Z,8.70
2019-04-21T02:55:58.735Z,8.70
2019-04-21T02:58:34.430Z,8.80
2019-04-21T03:01:31.272Z,8.60
2019-04-21T03:04:15.861Z,8.60
2019-04-21T03:07:09.679Z,8.50
2019-04-21T03:09:32.088Z,8.50
2019-04-21T03:14:46.466Z,8.30
2019-04-21T03:17:05.591Z,8.40
2019-04-21T03:19:48.153Z,8.40
2019-04-21T03:22:09.730Z,8.40
2019-04-21T03:24:40.305Z,8.40
2019-04-21T03:27:12.174Z,8.50
2019-04-21T03:32:36.703Z,8.30
2019-04-21T03:35:00.430Z,8.20
2019-04-21T03:37:14.019Z,8.20
2019-04-21T03:39:31.261Z,8.20
2019-04-21T03:42:12.426Z,8.20
2019-04-21T03:44:32.459Z,8.20
2019-04-21T03:52:03.543Z,8.10
2019-04-21T03:54:37.335Z,8.10
2019-04-21T03:57:24.047Z,8.00
2019-04-21T03:59:31.677Z,8.00
2019-04-21T04:02:28.056Z,7.90
2019-04-21T04:05:01.061Z,7.90
2019-04-21T04:10:11.815Z,7.90
2019-04-21T04:12:44.332Z,7.90
2019-04-21T04:15:23.764Z,7.80
2019-04-21T04:17:40.803Z,7.80
2019-04-21T04:20:19.189Z,7.80
2019-04-21T04:25:11.520Z,7.80
2019-04-21T04:30:14.743Z,7.70
2019-04-21T04:37:44.671Z,7.70
2019-04-21T04:40:46.912Z,7.70
2019-04-21T04:43:13.207Z,7.70
2019-04-21T04:48:05.835Z,7.60
2019-04-21T04:50:43.338Z,7.50
2019-04-21T04:53:01.590Z,7.50
2019-04-21T04:55:33.748Z,7.60
2019-04-21T04:58:16.093Z,7.60
2019-04-21T05:01:00.019Z,7.60
2019-04-21T05:03:01.004Z,7.60
2019-04-21T05:05:38.457Z,7.70
2019-04-21T05:10:50.938Z,7.80
2019-04-21T05:13:14.335Z,7.80
2019-04-21T05:15:28.582Z,7.80
2019-04-21T05:18:25.175Z,7.80
2019-04-21T05:20:23.677Z,7.90
2019-04-21T05:22:58.153Z,7.90
2019-04-21T05:25:19.475Z,8.00
2019-04-21T05:27:47.280Z,8.00
2019-04-21T05:30:41.932Z,8.10
2019-04-21T05:33:25.718Z,8.20
2019-04-21T05:36:11.036Z,8.30
2019-04-21T05:38:53.062Z,8.40
2019-04-21T05:41:23.197Z,8.50
2019-04-21T05:43:56.407Z,8.60
2019-04-21T05:46:31.871Z,8.60
2019-04-21T05:49:05.622Z,8.80
2019-04-21T05:51:30.347Z,8.90
2019-04-21T05:54:09.296Z,8.90
2019-04-21T05:56:32.087Z,9.10
2019-04-21T05:58:55.427Z,9.20
2019-04-21T06:01:33.413Z,9.30
2019-04-21T06:04:07.185Z,9.40
2019-04-21T06:06:41.029Z,9.50
2019-04-21T06:08:58.388Z,9.70
2019-04-21T06:11:32.036Z,9.80
2019-04-21T06:14:03.786Z,9.90
2019-04-21T06:16:36.448Z,10.10
2019-04-21T06:19:01.041Z,10.20
2019-04-21T06:21:27.508Z,10.40
2019-04-21T06:23:57.371Z,10.50
2019-04-21T06:26:53.826Z,10.70
2019-04-21T06:31:47.359Z,11.00
2019-04-21T06:33:58.861Z,11.20
2019-04-21T06:39:11.623Z,11.50
2019-04-21T06:41:34.009Z,11.60
2019-04-21T06:46:35.474Z,12.00
2019-04-21T06:51:33.747Z,12.30
2019-04-21T06:56:38.122Z,12.60
2019-04-21T06:59:01.311Z,12.80
2019-04-21T07:01:36.027Z,12.90
2019-04-21T07:06:40.395Z,13.20
2019-04-21T07:09:10.415Z,13.40
2019-04-21T07:11:25.287Z,13.50
2019-04-21T07:14:20.865Z,13.60
2019-04-21T07:16:34.704Z,13.80
2019-04-21T07:19:09.805Z,13.90
2019-04-21T07:21:32.468Z,13.90
2019-04-21T07:24:05.829Z,14.00
2019-04-21T07:26:29.694Z,14.20
2019-04-21T07:29:01.780Z,14.40
2019-04-21T07:31:31.709Z,14.50
2019-04-21T07:34:10.186Z,14.60
2019-04-21T07:36:43.975Z,14.70
2019-04-21T07:38:55.604Z,14.80
2019-04-21T07:41:18.522Z,14.80
2019-04-21T07:43:55.944Z,14.90
2019-04-21T07:46:23.681Z,15.00
2019-04-21T07:49:19.146Z,15.10
2019-04-21T07:52:26.476Z,15.20
2019-04-21T07:54:57.422Z,15.30
2019-04-21T07:57:15.555Z,15.50
2019-04-21T07:59:57.855Z,15.70
2019-04-21T08:02:17.062Z,15.80
2019-04-21T08:07:24.515Z,16.20
2019-04-21T08:09:46.729Z,16.40
2019-04-21T08:12:15.767Z,16.60
2019-04-21T08:14:53.538Z,16.70
2019-04-21T08:17:16.172Z,16.90
2019-04-21T08:19:46.168Z,17.10
2019-04-21T08:22:20.245Z,17.20
2019-04-21T08:24:50.123Z,17.30
2019-04-21T08:27:17.741Z,17.50
2019-04-21T08:29:46.256Z,17.70
2019-04-21T08:32:15.809Z,17.70
2019-04-21T08:34:55.831Z,17.90
2019-04-21T08:37:13.885Z,18.00
2019-04-21T08:42:10.429Z,18.30
2019-04-21T08:44:46.656Z,18.50
2019-04-21T08:47:12.841Z,18.70
2019-04-21T08:49:41.526Z,18.90
2019-04-21T08:52:21.241Z,19.00
2019-04-21T08:54:43.104Z,19.10
2019-04-21T08:57:24.560Z,19.30
2019-04-21T09:00:08.433Z,19.50
2019-04-21T09:02:47.151Z,19.60
2019-04-21T09:05:17.736Z,19.70
2019-04-21T09:07:51.023Z,19.90
2019-04-21T09:10:17.652Z,20.00
2019-04-21T09:12:46.607Z,20.30
2019-04-21T09:15:17.358Z,20.40
2019-04-21T09:17:36.760Z,20.50
2019-04-21T09:20:20.960Z,20.70
2019-04-21T09:22:45.769Z,20.90
2019-04-21T09:25:19.365Z,21.10
2019-04-21T09:27:44.071Z,21.20
2019-04-21T09:30:00.325Z,21.40
2019-04-21T09:32:27.563Z,21.50
2019-04-21T09:34:54.069Z,21.70
2019-04-21T09:37:35.326Z,21.90
2019-04-21T09:39:54.136Z,21.90
2019-04-21T09:42:21.920Z,22.10
2019-04-21T09:44:53.827Z,22.10
2019-04-21T09:47:24.560Z,22.40
2019-04-21T09:49:50.029Z,22.50
2019-04-21T09:52:20.914Z,22.70
2019-04-21T09:54:56.623Z,22.90
2019-04-21T09:57:29.959Z,22.90
2019-04-21T09:59:55.773Z,23.00
2019-04-21T10:02:25.237Z,23.10
2019-04-21T10:04:46.252Z,23.30
2019-04-21T10:07:24.349Z,23.50
2019-04-21T10:09:43.659Z,23.60
2019-04-21T10:12:11.894Z,23.60
2019-04-21T10:14:40.825Z,23.80
2019-04-21T10:17:24.263Z,23.70
2019-04-21T10:19:52.887Z,24.00
2019-04-21T10:22:21.158Z,24.10
2019-04-21T10:24:48.873Z,24.20
2019-04-21T10:27:17.122Z,24.30
2019-04-21T10:29:47.235Z,24.30
2019-04-21T10:32:15.570Z,24.40
2019-04-21T10:34:45.231Z,24.60
2019-04-21T10:37:13.377Z,24.80
2019-04-21T10:39:43.139Z,24.90
2019-04-21T10:42:11.289Z,24.90
2019-04-21T10:44:38.952Z,24.90
2019-04-21T10:47:06.911Z,24.90
2019-04-21T10:49:35.016Z,25.10
2019-04-21T10:52:06.700Z,25.30
2019-04-21T10:54:57.278Z,25.40
2019-04-21T10:57:08.361Z,25.40
2019-04-21T10:59:37.223Z,25.50
2019-04-21T11:02:08.791Z,25.60
2019-04-21T11:04:38.586Z,25.70
2019-04-21T11:07:31.388Z,25.80
2019-04-21T11:09:56.094Z,26.10
2019-04-21T11:12:24.185Z,26.20
2019-04-21T11:14:51.756Z,26.30
2019-04-21T11:17:19.863Z,26.30
2019-04-21T11:19:48.549Z,26.40
2019-04-21T11:22:16.769Z,26.50
2019-04-21T11:24:44.995Z,26.70
2019-04-21T11:27:12.788Z,26.80
2019-04-21T11:29:41.334Z,27.00
2019-04-21T11:32:09.342Z,27.00
2019-04-21T11:34:37.278Z,27.00
2019-04-21T11:37:06.555Z,27.10
2019-04-21T11:39:46.083Z,27.20
2019-04-21T11:42:13.556Z,27.20
2019-04-21T11:44:41.717Z,27.20
2019-04-21T11:47:16.601Z,27.30
2019-04-21T11:49:45.244Z,27.40
2019-04-21T11:52:13.356Z,27.50
2019-04-21T11:54:42.680Z,27.60
2019-04-21T11:57:16.063Z,27.70
2019-04-21T11:59:40.025Z,27.90
2019-04-21T12:02:07.865Z,28.00
2019-04-21T12:04:35.801Z,28.20
2019-04-21T12:07:04.990Z,28.20
2019-04-21T12:09:33.758Z,28.20
2019-04-21T12:12:01.315Z,28.00
2019-04-21T12:14:30.161Z,27.60
2019-04-21T12:16:59.210Z,27.70
2019-04-21T12:19:27.113Z,27.80
2019-04-21T12:22:05.022Z,27.70
2019-04-21T12:24:24.987Z,27.80
2019-04-21T12:26:53.799Z,27.90
2019-04-21T12:29:22.710Z,28.00
2019-04-21T12:32:22.215Z,28.10
2019-04-21T12:34:51.769Z,28.20
2019-04-21T12:37:19.294Z,28.30
2019-04-21T12:39:48.496Z,28.40
2019-04-21T12:42:16.645Z,28.30
2019-04-21T12:44:45.438Z,28.40
2019-04-21T12:47:14.167Z,28.30
2019-04-21T12:49:43.484Z,28.50
2019-04-21T12:52:11.498Z,28.50
2019-04-21T12:54:39.651Z,28.50
2019-04-21T12:57:07.689Z,28.60
2019-04-21T12:59:36.303Z,28.70
2019-04-21T13:02:05.772Z,28.60
2019-04-21T13:04:33.546Z,28.60
2019-04-21T13:07:01.540Z,28.50
2019-04-21T13:09:30.717Z,28.60
2019-04-21T13:11:59.451Z,28.60
2019-04-21T13:14:27.354Z,28.80
2019-04-21T13:16:55.120Z,28.80
2019-04-21T13:19:23.631Z,28.80
2019-04-21T13:21:52.063Z,28.90
2019-04-21T13:24:19.993Z,29.10
2019-04-21T13:26:53.637Z,29.20
2019-04-21T13:29:18.416Z,29.00
2019-04-21T13:31:45.933Z,29.10
2019-04-21T13:34:14.021Z,29.20
2019-04-21T13:36:41.515Z,29.30
2019-04-21T13:39:57.126Z,29.10
2019-04-21T13:42:14.509Z,29.00
2019-04-21T13:44:33.026Z,28.90
2019-04-21T13:47:00.813Z,28.90
2019-04-21T13:49:29.619Z,29.00
2019-04-21T13:51:57.504Z,29.00
2019-04-21T13:54:25.424Z,29.10
2019-04-21T13:56:54.393Z,29.30
2019-04-21T13:59:22.495Z,29.40
2019-04-21T14:01:50.122Z,29.40
2019-04-21T14:04:17.858Z,29.40
2019-04-21T14:06:45.487Z,29.50
2019-04-21T14:09:13.854Z,29.50
2019-04-21T14:11:41.491Z,29.60
2019-04-21T14:14:10.401Z,29.70
2019-04-21T14:16:38.194Z,29.80
2019-04-21T14:19:05.691Z,29.80
2019-04-21T14:21:33.767Z,29.90
2019-04-21T14:24:01.385Z,29.80
2019-04-21T14:26:29.944Z,29.90
2019-04-21T14:28:58.851Z,30.00
2019-04-21T14:31:26.482Z,30.10
2019-04-21T14:33:54.213Z,30.00
2019-04-21T14:36:22.987Z,30.10
2019-04-21T14:38:50.623Z,30.00
2019-04-21T14:41:18.066Z,29.80
2019-04-21T14:43:45.951Z,29.60
2019-04-21T14:46:37.473Z,29.60
2019-04-21T14:49:19.431Z,29.50
2019-04-21T14:51:50.839Z,29.70
2019-04-21T14:54:46.963Z,29.80
2019-04-21T14:57:15.546Z,30.00
2019-04-21T14:59:44.783Z,29.90
2019-04-21T15:02:14.033Z,30.00
2019-04-21T15:04:41.879Z,30.20
2019-04-21T15:07:09.730Z,30.30
2019-04-21T15:09:39.252Z,30.30
2019-04-21T15:12:07.946Z,30.40
2019-04-21T15:14:36.005Z,30.50
2019-04-21T15:17:04.974Z,30.50
2019-04-21T15:19:32.842Z,30.40
2019-04-21T15:22:00.688Z,30.50
2019-04-21T15:24:30.139Z,30.30
2019-04-21T15:26:59.055Z,30.20
2019-04-21T15:29:26.817Z,30.10
2019-04-21T15:31:54.740Z,29.80
2019-04-21T15:34:25.357Z,29.40
2019-04-21T15:36:52.376Z,29.10
2019-04-21T15:39:19.899Z,28.90
2019-04-21T15:41:48.321Z,28.60
2019-04-21T15:44:16.496Z,28.40
2019-04-21T15:46:46.047Z,28.20
2019-04-21T15:49:13.622Z,28.10
2019-04-21T15:51:42.156Z,28.00
2019-04-21T15:54:10.940Z,27.80
2019-04-21T15:56:42.756Z,27.80
2019-04-21T15:59:33.067Z,27.90
2019-04-21T16:02:18.913Z,28.00
2019-04-21T16:04:46.621Z,28.00
2019-04-21T16:07:14.150Z,27.90
2019-04-21T16:09:41.874Z,27.90
2019-04-21T16:12:09.979Z,28.20
2019-04-21T16:14:38.644Z,28.20
2019-04-21T16:17:07.560Z,28.30
2019-04-21T16:19:36.336Z,28.20
2019-04-21T16:22:03.952Z,28.20
2019-04-21T16:24:31.740Z,28.40
2019-04-21T16:27:01.711Z,29.00
2019-04-21T16:29:29.513Z,29.40
2019-04-21T16:31:57.408Z,30.10
2019-04-21T16:34:36.083Z,30.70
2019-04-21T16:36:55.869Z,31.10
2019-04-21T16:39:23.448Z,31.90
2019-04-21T16:41:51.945Z,32.50
2019-04-21T16:44:20.987Z,32.70
2019-04-21T16:46:49.554Z,33.10
2019-04-21T16:49:18.334Z,33.30
2019-04-21T16:51:47.858Z,33.50
2019-04-21T16:54:28.421Z,33.90
2019-04-21T16:57:03.721Z,34.20
2019-04-21T16:59:36.774Z,34.30
2019-04-21T17:02:04.854Z,34.60
2019-04-21T17:04:33.742Z,34.80
2019-04-21T17:07:02.958Z,35.10
2019-04-21T17:09:32.565Z,35.10
2019-04-21T17:12:03.997Z,35.20
2019-04-21T17:14:45.255Z,35.50
2019-04-21T17:17:36.920Z,35.80
2019-04-21T17:19:33.460Z,35.90
2019-04-21T17:21:59.584Z,35.30
2019-04-21T17:24:28.647Z,33.90
2019-04-21T17:26:57.425Z,32.70
2019-04-21T17:29:25.753Z,31.70
2019-04-21T17:31:53.290Z,30.80
2019-04-21T17:34:24.915Z,30.00
2019-04-21T17:36:50.974Z,29.40
2019-04-21T17:39:18.741Z,28.90
2019-04-21T17:42:01.995Z,28.50
2019-04-21T17:44:17.125Z,28.00
2019-04-21T17:46:51.564Z,27.60
2019-04-21T17:49:14.992Z,27.30
2019-04-21T17:52:08.921Z,27.00
2019-04-21T17:54:43.800Z,26.70
2019-04-21T17:57:30.506Z,26.40
2019-04-21T18:02:30.081Z,25.90
2019-04-21T18:04:58.579Z,25.60
2019-04-21T18:07:27.402Z,25.40
2019-04-21T18:12:31.867Z,24.90
2019-04-21T18:14:53.029Z,24.50
2019-04-21T18:17:11.536Z,24.20
2019-04-21T18:19:41.814Z,23.90
2019-04-21T18:22:36.094Z,23.60
2019-04-21T18:25:06.722Z,23.10
2019-04-21T18:27:32.245Z,22.50
2019-04-21T18:30:04.390Z,22.10
2019-04-21T18:32:37.041Z,21.80
2019-04-21T18:35:17.759Z,21.50
2019-04-21T18:38:07.080Z,21.30
2019-04-21T18:40:28.009Z,20.90
2019-04-21T18:43:35.996Z,20.70
2019-04-21T18:46:17.049Z,20.50
2019-04-21T18:48:29.419Z,20.20
2019-04-21T18:51:15.782Z,19.90
2019-04-21T18:54:26.915Z,19.70
2019-04-21T18:56:33.656Z,19.50
2019-04-21T18:59:02.589Z,19.20
2019-04-21T19:01:33.310Z,19.00
2019-04-21T19:04:00.407Z,18.80
2019-04-21T19:06:47.026Z,18.70
2019-04-21T19:09:17.029Z,18.50
2019-04-21T19:11:42.541Z,18.30
2019-04-21T19:16:53.986Z,18.00
2019-04-21T19:19:39.226Z,17.80
2019-04-21T19:21:49.974Z,17.70
2019-04-21T19:24:27.076Z,17.50
2019-04-21T19:26:52.432Z,17.40
2019-04-21T19:29:24.089Z,17.40
2019-04-21T19:31:49.574Z,17.20
2019-04-21T19:34:06.124Z,17.10
2019-04-21T19:36:29.080Z,17.00
2019-04-21T19:39:06.773Z,16.80
2019-04-21T19:41:41.106Z,16.60
2019-04-21T19:44:15.755Z,16.50
2019-04-21T19:46:38.058Z,16.40
2019-04-21T19:49:22.770Z,16.40
2019-04-21T19:51:36.531Z,16.30
2019-04-21T19:54:03.709Z,16.20
2019-04-21T19:56:24.160Z,16.10
2019-04-21T19:58:52.946Z,16.00
2019-04-21T20:01:21.363Z,15.90
2019-04-21T20:03:55.523Z,15.90
2019-04-21T20:06:33.157Z,15.70
2019-04-21T20:09:09.585Z,15.70
2019-04-21T20:11:36.102Z,15.70
2019-04-21T20:14:32.582Z,15.60
2019-04-21T20:16:37.824Z,15.50
2019-04-21T20:18:52.952Z,15.40
2019-04-21T20:21:14.688Z,15.30
2019-04-21T20:23:43.243Z,15.20
2019-04-21T20:26:14.059Z,15.20
2019-04-21T20:28:54.683Z,15.10
2019-04-21T20:31:30.109Z,15.10
2019-04-21T20:36:35.364Z,14.90
2019-04-21T20:38:50.131Z,14.80
2019-04-21T20:41:24.134Z,14.80
2019-04-21T20:44:04.194Z,14.70
2019-04-21T20:46:24.963Z,14.70
2019-04-21T20:48:52.309Z,14.60
2019-04-21T20:51:27.366Z,14.60
2019-04-21T20:53:54.089Z,14.50
2019-04-21T20:56:17.877Z,14.40
2019-04-21T20:58:57.595Z,14.40
2019-04-21T21:01:39.465Z,14.40
2019-04-21T21:03:55.002Z,14.30
2019-04-21T21:06:21.831Z,14.20
2019-04-21T21:08:57.157Z,14.10
2019-04-21T21:11:24.287Z,14.10
2019-04-21T21:13:52.140Z,14.00
2019-04-21T21:16:29.203Z,14.00
2019-04-21T21:19:04.712Z,13.90
2019-04-21T21:21:23.492Z,13.90
2019-04-21T21:23:52.748Z,13.80
2019-04-21T21:26:25.727Z,13.70
2019-04-21T21:28:45.966Z,13.60
2019-04-21T21:31:17.788Z,13.50
2019-04-21T21:33:57.466Z,13.50
2019-04-21T21:36:20.926Z,13.40
2019-04-21T21:38:53.081Z,13.30
2019-04-21T21:41:10.859Z,13.20
2019-04-21T21:43:31.339Z,13.10
2019-04-21T21:46:04.882Z,13.00
2019-04-21T21:48:40.823Z,13.00
2019-04-21T21:51:08.211Z,13.00
2019-04-21T21:53:34.203Z,12.90
2019-04-21T21:56:02.641Z,12.90
2019-04-21T21:58:36.065Z,12.90
2019-04-21T22:01:02.971Z,12.70
2019-04-21T22:03:34.229Z,12.70
2019-04-21T22:06:06.221Z,12.70
2019-04-21T22:08:30.465Z,12.60
2019-04-21T22:10:59.051Z,12.50
2019-04-21T22:13:37.564Z,12.50
2019-04-21T22:16:03.855Z,12.50
2019-04-21T22:18:43.817Z,12.40
2019-04-21T22:21:10.055Z,12.30
2019-04-21T22:23:39.922Z,12.30
2019-04-21T22:25:57.828Z,12.30
2019-04-21T22:28:25.561Z,12.20
2019-04-21T22:30:54.971Z,12.30
2019-04-21T22:33:23.335Z,12.20
2019-04-21T22:36:00.173Z,12.20
2019-04-21T22:38:38.117Z,12.10
2019-04-21T22:41:00.361Z,12.00
2019-04-21T22:43:28.431Z,12.00
2019-04-21T22:45:49.581Z,12.00
2019-04-21T22:48:20.128Z,11.90
2019-04-21T22:50:46.906Z,11.90
2019-04-21T22:53:16.160Z,11.80
2019-04-21T22:55:45.094Z,11.80
2019-04-21T22:58:15.917Z,11.70
2019-04-21T23:00:46.085Z,11.70
2019-04-21T23:03:17.331Z,11.70
2019-04-21T23:05:44.429Z,11.70
2019-04-21T23:08:12.907Z,11.60
2019-04-21T23:10:47.922Z,11.50
2019-04-21T23:13:15.954Z,11.50
2019-04-21T23:15:47.070Z,11.40
2019-04-21T23:18:27.247Z,11.40
2019-04-21T23:20:55.110Z,11.30
2019-04-21T23:23:30.377Z,11.10
2019-04-21T23:25:53.356Z,11.00
2019-04-21T23:28:22.344Z,10.90
2019-04-21T23:30:56.696Z,10.60
2019-04-21T23:33:08.656Z,10.60
2019-04-21T23:35:40.550Z,10.60
2019-04-21T23:38:08.330Z,10.60
2019-04-21T23:40:35.229Z,10.60
2019-04-21T23:43:09.661Z,10.70
2019-04-21T23:45:38.018Z,10.70
2019-04-21T23:48:18.551Z,10.60
2019-04-21T23:50:43.106Z,10.60
2019-04-21T23:53:01.690Z,10.60
2019-04-21T23:55:29.483Z,10.50
2019-04-21T23:58:07.129Z,10.50
